createdAt,value
2019-01-17T00:01:17.841Z,3.57
2019-01-17T00:04:06.050Z,3.59
2019-01-17T00:06:58.451Z,3.56
2019-01-17T00:09:46.119Z,3.56
2019-01-17T00:12:26.861Z,3.56
2019-01-17T00:15:21.803Z,3.51
2019-01-17T00:18:10.303Z,3.53
2019-01-17T00:20:58.679Z,3.49
2019-01-17T00:23:48.332Z,3.48
2019-01-17T00:26:36.870Z,3.51
2019-01-17T00:29:29.466Z,3.48
2019-01-17T00:32:24.973Z,3.50
2019-01-17T00:35:17.364Z,3.55
2019-01-17T00:38:15.839Z,3.48
2019-01-17T00:41:04.513Z,3.51
2019-01-17T00:43:53.022Z,3.53
2019-01-17T00:46:45.726Z,3.49
2019-01-17T00:49:34.763Z,3.51
2019-01-17T00:52:19.851Z,3.59
2019-01-17T00:55:12.194Z,3.64
2019-01-17T00:58:01.775Z,3.72
2019-01-17T01:00:50.316Z,3.73
2019-01-17T01:03:38.763Z,3.76
2019-01-17T01:06:28.397Z,3.68
2019-01-17T01:09:36.309Z,3.74
2019-01-17T01:12:25.979Z,3.74
2019-01-17T01:15:15.324Z,3.74
2019-01-17T01:17:53.257Z,3.70
2019-01-17T01:20:48.295Z,3.68
2019-01-17T01:23:36.822Z,3.64
2019-01-17T01:26:25.328Z,3.61
2019-01-17T01:29:14.956Z,3.74
2019-01-17T01:32:10.449Z,3.90
2019-01-17T01:35:03.135Z,3.81
2019-01-17T01:37:51.491Z,3.82
2019-01-17T01:40:45.063Z,3.80
2019-01-17T01:43:41.370Z,4.00
2019-01-17T01:46:30.072Z,4.01
2019-01-17T01:49:22.627Z,4.05
2019-01-17T01:52:11.374Z,4.11
2019-01-17T01:54:42.191Z,4.20
2019-01-17T01:57:12.996Z,4.26
2019-01-17T01:59:43.811Z,4.28
2019-01-17T02:02:14.559Z,4.26
2019-01-17T02:04:45.364Z,4.22
2019-01-17T02:07:16.243Z,4.21
2019-01-17T02:09:47.023Z,4.22
2019-01-17T02:12:17.750Z,4.26
2019-01-17T02:14:48.543Z,4.34
2019-01-17T02:17:19.363Z,4.43
2019-01-17T02:19:50.187Z,4.30
2019-01-17T02:22:21.159Z,4.34
2019-01-17T02:24:52.007Z,4.40
2019-01-17T02:27:22.774Z,4.41
2019-01-17T02:29:53.587Z,4.41
2019-01-17T02:32:24.390Z,4.45
2019-01-17T02:34:55.165Z,4.64
2019-01-17T02:37:25.945Z,4.54
2019-01-17T02:39:56.758Z,4.50
2019-01-17T02:42:27.706Z,4.42
2019-01-17T02:44:58.495Z,4.41
2019-01-17T02:47:29.291Z,4.43
2019-01-17T02:50:00.494Z,4.40
2019-01-17T02:52:31.218Z,4.42
2019-01-17T02:55:01.992Z,4.34
2019-01-17T02:57:32.860Z,4.23
2019-01-17T03:00:03.858Z,4.11
2019-01-17T03:02:34.691Z,4.16
2019-01-17T03:05:05.975Z,4.12
2019-01-17T03:07:36.790Z,4.01
2019-01-17T03:10:11.794Z,4.12
2019-01-17T03:12:42.564Z,4.30
2019-01-17T03:15:13.594Z,4.31
2019-01-17T03:17:44.382Z,4.47
2019-01-17T03:20:15.876Z,4.48
2019-01-17T03:22:46.600Z,4.54
2019-01-17T03:25:17.609Z,4.71
2019-01-17T03:27:48.426Z,4.75
2019-01-17T03:30:20.434Z,4.74
2019-01-17T03:32:51.227Z,4.70
2019-01-17T03:35:22.039Z,4.68
2019-01-17T03:37:52.807Z,4.67
2019-01-17T03:40:23.587Z,4.60
2019-01-17T03:42:54.306Z,4.58
2019-01-17T03:45:25.167Z,4.49
2019-01-17T03:47:55.920Z,4.52
2019-01-17T03:50:26.773Z,4.60
2019-01-17T03:52:57.581Z,4.69
2019-01-17T03:55:28.970Z,4.84
2019-01-17T03:57:59.832Z,4.69
2019-01-17T04:00:30.693Z,4.57
2019-01-17T04:03:01.545Z,4.78
2019-01-17T04:05:32.282Z,4.99
2019-01-17T04:08:03.028Z,5.10
2019-01-17T04:10:33.885Z,5.15
2019-01-17T04:13:04.688Z,5.19
2019-01-17T04:15:35.543Z,5.25
2019-01-17T04:18:06.624Z,5.26
2019-01-17T04:20:37.472Z,5.36
2019-01-17T04:23:08.314Z,5.31
2019-01-17T04:25:39.073Z,5.31
2019-01-17T04:28:09.816Z,5.37
2019-01-17T04:30:40.653Z,5.41
2019-01-17T04:33:11.428Z,5.40
2019-01-17T04:35:42.201Z,5.38
2019-01-17T04:38:12.985Z,5.44
2019-01-17T04:40:43.737Z,5.45
2019-01-17T04:43:14.474Z,5.51
2019-01-17T04:45:45.275Z,5.59
2019-01-17T04:48:16.065Z,5.57
2019-01-17T04:50:46.821Z,5.60
2019-01-17T04:53:17.606Z,5.63
2019-01-17T04:55:48.401Z,5.59
2019-01-17T04:58:19.355Z,5.64
2019-01-17T05:00:50.102Z,5.63
2019-01-17T05:03:20.974Z,5.66
2019-01-17T05:05:52.345Z,5.77
2019-01-17T05:08:23.393Z,5.73
2019-01-17T05:10:54.212Z,5.75
2019-01-17T05:13:25.099Z,5.68
2019-01-17T05:15:55.938Z,5.66
2019-01-17T05:18:26.721Z,5.69
2019-01-17T05:20:57.679Z,5.75
2019-01-17T05:23:28.552Z,5.64
2019-01-17T05:25:59.363Z,5.64
2019-01-17T05:28:30.174Z,5.81
2019-01-17T05:31:01.000Z,5.83
2019-01-17T05:33:31.813Z,5.78
2019-01-17T05:36:02.613Z,5.65
2019-01-17T05:38:33.465Z,5.59
2019-01-17T05:41:04.573Z,5.59
2019-01-17T05:43:35.381Z,5.58
2019-01-17T05:46:06.289Z,5.68
2019-01-17T05:48:37.121Z,5.74
2019-01-17T05:51:08.016Z,5.69
2019-01-17T05:53:38.926Z,5.71
2019-01-17T05:56:09.817Z,5.72
2019-01-17T05:58:40.645Z,5.76
2019-01-17T06:01:12.456Z,5.79
2019-01-17T06:03:43.315Z,5.80
2019-01-17T06:06:14.099Z,5.80
2019-01-17T06:08:44.968Z,5.98
2019-01-17T06:11:15.816Z,5.86
2019-01-17T06:13:46.632Z,5.83
2019-01-17T06:16:19.982Z,5.76
2019-01-17T06:18:50.778Z,5.76
2019-01-17T06:21:21.538Z,5.79
2019-01-17T06:23:52.312Z,5.76
2019-01-17T06:26:23.192Z,5.74
2019-01-17T06:28:54.121Z,5.73
2019-01-17T06:31:25.032Z,5.75
2019-01-17T06:33:56.369Z,5.83
2019-01-17T06:36:27.199Z,5.77
2019-01-17T06:39:01.321Z,5.79
2019-01-17T06:41:32.289Z,5.77
2019-01-17T06:44:03.157Z,5.74
2019-01-17T06:46:34.169Z,5.72
2019-01-17T06:49:06.056Z,5.73
2019-01-17T06:51:37.067Z,5.75
2019-01-17T06:54:07.965Z,5.77
2019-01-17T06:56:38.864Z,5.74
2019-01-17T06:59:09.712Z,5.76
2019-01-17T07:01:40.781Z,5.79
2019-01-17T07:04:11.844Z,5.79
2019-01-17T07:06:42.748Z,5.78
2019-01-17T07:09:13.666Z,5.79
2019-01-17T07:11:44.589Z,5.81
2019-01-17T07:14:15.432Z,5.88
2019-01-17T07:16:46.338Z,5.91
2019-01-17T07:19:17.194Z,5.90
2019-01-17T07:21:48.016Z,5.92
2019-01-17T07:24:18.859Z,5.96
2019-01-17T07:26:49.764Z,6.01
2019-01-17T07:29:20.700Z,6.04
2019-01-17T07:31:51.688Z,6.05
2019-01-17T07:34:22.672Z,6.09
2019-01-17T07:36:53.800Z,6.13
2019-01-17T07:39:24.788Z,6.22
2019-01-17T07:41:55.808Z,6.21
2019-01-17T07:44:26.622Z,6.25
2019-01-17T07:46:57.529Z,6.29
2019-01-17T07:49:28.593Z,6.35
2019-01-17T07:51:59.607Z,6.39
2019-01-17T07:54:30.564Z,6.44
2019-01-17T07:57:01.617Z,6.48
2019-01-17T07:59:32.505Z,6.53
2019-01-17T08:02:03.476Z,6.57
2019-01-17T08:04:34.388Z,6.56
2019-01-17T08:07:05.914Z,6.63
2019-01-17T08:09:36.771Z,6.66
2019-01-17T08:12:07.562Z,6.77
2019-01-17T08:14:38.445Z,6.83
2019-01-17T08:17:09.439Z,6.97
2019-01-17T08:19:40.484Z,6.89
2019-01-17T08:22:11.448Z,6.88
2019-01-17T08:24:42.303Z,6.87
2019-01-17T08:27:13.143Z,6.85
2019-01-17T08:29:44.047Z,6.82
2019-01-17T08:32:14.883Z,6.85
2019-01-17T08:34:45.670Z,6.86
2019-01-17T08:37:16.555Z,6.90
2019-01-17T08:39:47.478Z,6.91
2019-01-17T08:42:18.385Z,6.94
2019-01-17T08:44:49.190Z,6.89
2019-01-17T08:47:20.128Z,6.94
2019-01-17T08:49:51.015Z,7.00
2019-01-17T08:52:21.863Z,7.02
2019-01-17T08:54:52.773Z,6.98
2019-01-17T08:57:23.692Z,6.91
2019-01-17T08:59:54.551Z,6.99
2019-01-17T09:02:25.415Z,6.92
2019-01-17T09:04:56.291Z,6.88
2019-01-17T09:07:27.167Z,6.92
2019-01-17T09:09:58.020Z,7.00
2019-01-17T09:12:28.995Z,7.10
2019-01-17T09:14:59.841Z,7.22
2019-01-17T09:17:30.783Z,7.29
2019-01-17T09:20:01.606Z,7.18
2019-01-17T09:22:32.474Z,7.29
2019-01-17T09:25:03.319Z,7.17
2019-01-17T09:27:34.207Z,7.20
2019-01-17T09:30:06.151Z,7.31
2019-01-17T09:32:37.059Z,7.31
2019-01-17T09:35:09.431Z,7.13
2019-01-17T09:37:40.427Z,7.18
2019-01-17T09:40:15.356Z,7.28
2019-01-17T09:42:46.303Z,7.39
2019-01-17T09:45:17.563Z,7.45
2019-01-17T09:47:48.559Z,7.42
2019-01-17T09:50:22.581Z,7.58
2019-01-17T09:52:53.621Z,7.53
2019-01-17T09:55:24.530Z,7.32
2019-01-17T09:57:55.375Z,7.28
2019-01-17T10:00:31.922Z,7.34
2019-01-17T10:03:02.745Z,7.35
2019-01-17T10:05:33.602Z,7.43
2019-01-17T10:08:04.550Z,7.55
2019-01-17T10:10:35.454Z,7.68
2019-01-17T10:13:06.263Z,7.95
2019-01-17T10:16:27.979Z,7.93
2019-01-17T10:19:48.663Z,7.99
2019-01-17T10:23:37.199Z,8.03
2019-01-17T10:27:19.556Z,7.84
2019-01-17T10:30:29.135Z,7.97
2019-01-17T10:33:29.754Z,7.90
2019-01-17T10:36:59.197Z,8.02
2019-01-17T10:40:15.096Z,8.01
2019-01-17T10:43:18.975Z,8.00
2019-01-17T10:46:59.107Z,8.18
2019-01-17T10:50:18.289Z,8.18
2019-01-17T10:53:59.698Z,8.29
2019-01-17T10:57:14.830Z,8.20
2019-01-17T11:00:25.246Z,8.25
2019-01-17T11:03:54.938Z,8.06
2019-01-17T11:07:34.738Z,8.06
2019-01-17T11:11:10.141Z,8.26
2019-01-17T11:14:42.200Z,8.44
2019-01-17T11:17:58.213Z,8.50
2019-01-17T11:21:19.230Z,8.51
2019-01-17T11:24:26.202Z,8.35
2019-01-17T11:28:18.850Z,8.24
2019-01-17T11:31:39.162Z,8.27
2019-01-17T11:34:47.837Z,8.44
2019-01-17T11:38:07.874Z,8.04
2019-01-17T11:41:50.988Z,8.13
2019-01-17T11:45:22.457Z,8.20
2019-01-17T11:48:50.379Z,8.22
2019-01-17T11:52:15.953Z,7.95
2019-01-17T11:55:32.269Z,8.29
2019-01-17T11:59:00.506Z,8.28
2019-01-17T12:02:28.815Z,8.34
2019-01-17T12:04:57.004Z,8.56
2019-01-17T12:07:27.878Z,8.36
2019-01-17T12:09:58.737Z,8.45
2019-01-17T12:12:29.706Z,8.43
2019-01-17T12:15:00.942Z,8.61
2019-01-17T12:17:31.716Z,8.46
2019-01-17T12:20:02.742Z,8.21
2019-01-17T12:22:33.630Z,8.34
2019-01-17T12:25:04.955Z,8.08
2019-01-17T12:27:42.354Z,8.16
2019-01-17T12:30:13.991Z,8.11
2019-01-17T12:32:44.905Z,8.23
2019-01-17T12:35:15.782Z,8.37
2019-01-17T12:37:46.610Z,8.66
2019-01-17T12:40:17.545Z,8.69
2019-01-17T12:42:48.390Z,8.66
2019-01-17T12:45:19.207Z,8.66
2019-01-17T12:47:50.021Z,8.68
2019-01-17T12:50:21.698Z,8.80
2019-01-17T12:52:52.508Z,8.79
2019-01-17T12:55:23.348Z,8.90
2019-01-17T12:57:54.208Z,8.79
2019-01-17T13:00:25.142Z,8.81
2019-01-17T13:02:55.975Z,8.69
2019-01-17T13:05:26.783Z,8.65
2019-01-17T13:07:57.741Z,8.53
2019-01-17T13:10:28.495Z,8.22
2019-01-17T13:12:59.335Z,8.23
2019-01-17T13:15:30.130Z,8.31
2019-01-17T13:18:01.015Z,8.20
2019-01-17T13:20:31.794Z,8.30
2019-01-17T13:23:02.689Z,8.22
2019-01-17T13:25:33.496Z,8.21
2019-01-17T13:28:04.442Z,8.12
2019-01-17T13:30:35.464Z,8.05
2019-01-17T13:33:06.623Z,8.13
2019-01-17T13:35:37.526Z,8.04
2019-01-17T13:38:08.325Z,7.91
2019-01-17T13:40:39.173Z,7.94
2019-01-17T13:43:10.195Z,7.92
2019-01-17T13:45:40.940Z,7.94
2019-01-17T13:48:11.989Z,7.82
2019-01-17T13:50:42.931Z,7.90
2019-01-17T13:53:13.826Z,7.92
2019-01-17T13:55:44.714Z,7.74
2019-01-17T13:58:15.622Z,7.69
2019-01-17T14:00:46.419Z,7.62
2019-01-17T14:03:17.197Z,7.69
2019-01-17T14:05:47.991Z,7.74
2019-01-17T14:08:18.903Z,7.68
2019-01-17T14:10:49.800Z,7.69
2019-01-17T14:13:20.592Z,7.79
2019-01-17T14:15:51.461Z,7.88
2019-01-17T14:18:27.697Z,7.88
2019-01-17T14:20:54.868Z,8.05
2019-01-17T14:23:25.693Z,7.91
2019-01-17T14:25:56.569Z,7.78
2019-01-17T14:28:27.425Z,7.66
2019-01-17T14:30:58.476Z,7.61
2019-01-17T14:33:29.433Z,7.52
2019-01-17T14:36:00.288Z,7.40
2019-01-17T14:38:31.129Z,7.24
2019-01-17T14:41:02.087Z,7.07
2019-01-17T14:43:33.053Z,6.99
2019-01-17T14:46:11.525Z,7.00
2019-01-17T14:48:43.696Z,7.08
2019-01-17T14:51:14.580Z,6.94
2019-01-17T14:53:47.130Z,6.75
2019-01-17T14:56:18.063Z,6.70
2019-01-17T14:58:48.902Z,6.70
2019-01-17T15:01:19.684Z,6.70
2019-01-17T15:03:50.522Z,6.58
2019-01-17T15:06:21.354Z,6.47
2019-01-17T15:08:52.177Z,6.35
2019-01-17T15:11:22.981Z,6.21
2019-01-17T15:13:53.736Z,6.19
2019-01-17T15:16:24.576Z,6.11
2019-01-17T15:18:55.448Z,5.88
2019-01-17T15:21:26.243Z,5.70
2019-01-17T15:23:57.078Z,5.49
2019-01-17T15:26:27.912Z,5.33
2019-01-17T15:28:58.716Z,5.21
2019-01-17T15:31:29.492Z,5.12
2019-01-17T15:34:00.296Z,4.93
2019-01-17T15:36:31.166Z,4.83
2019-01-17T15:39:01.991Z,4.76
2019-01-17T15:41:32.824Z,4.69
2019-01-17T15:44:03.860Z,4.67
2019-01-17T15:46:34.677Z,4.58
2019-01-17T15:49:05.718Z,4.55
2019-01-17T15:51:36.536Z,4.49
2019-01-17T15:54:07.540Z,4.34
2019-01-17T15:56:38.668Z,4.30
2019-01-17T15:59:09.600Z,4.23
2019-01-17T16:01:40.724Z,4.10
2019-01-17T16:04:11.648Z,4.08
2019-01-17T16:06:42.623Z,3.97
2019-01-17T16:09:20.126Z,3.95
2019-01-17T16:11:50.960Z,3.93
2019-01-17T16:14:21.920Z,3.90
2019-01-17T16:16:54.846Z,3.95
2019-01-17T16:19:25.718Z,3.87
2019-01-17T16:21:58.796Z,3.78
2019-01-17T16:24:33.415Z,3.72
2019-01-17T16:27:04.465Z,3.72
2019-01-17T16:29:35.607Z,3.75
2019-01-17T16:32:06.759Z,3.67
2019-01-17T16:34:38.384Z,3.67
2019-01-17T16:37:09.490Z,3.61
2019-01-17T16:39:40.510Z,3.56
2019-01-17T16:42:11.424Z,3.65
2019-01-17T16:44:42.631Z,3.75
2019-01-17T16:47:18.534Z,3.96
2019-01-17T16:49:50.762Z,4.05
2019-01-17T16:52:23.891Z,4.07
2019-01-17T16:58:30.885Z,4.13
2019-01-17T17:01:01.974Z,4.38
2019-01-17T17:03:33.060Z,4.49
2019-01-17T17:06:04.749Z,4.61
2019-01-17T17:08:48.129Z,4.67
2019-01-17T17:12:18.745Z,4.68
2019-01-17T17:13:54.386Z,4.58
2019-01-17T17:16:49.405Z,4.45
2019-01-17T17:19:02.774Z,4.54
2019-01-17T17:21:41.684Z,4.59
2019-01-17T17:24:08.537Z,4.72
2019-01-17T17:41:43.699Z,5.16
2019-01-17T17:44:15.831Z,4.99
2019-01-17T17:46:46.656Z,4.92
2019-01-17T17:49:25.315Z,4.98
2019-01-17T17:51:56.418Z,4.99
2019-01-17T17:54:27.421Z,4.99
2019-01-17T17:56:58.399Z,5.13
2019-01-17T17:59:29.291Z,5.12
2019-01-17T18:02:04.543Z,5.04
2019-01-17T18:04:35.528Z,4.93
2019-01-17T18:07:06.679Z,4.96
2019-01-17T18:09:59.239Z,5.16
2019-01-17T18:12:31.144Z,5.08
2019-01-17T18:15:13.140Z,4.99
2019-01-17T18:18:08.049Z,4.85
2019-01-17T18:20:40.658Z,4.86
2019-01-17T18:23:14.375Z,4.89
2019-01-17T18:25:46.910Z,4.92
2019-01-17T18:28:17.712Z,4.93
2019-01-17T18:30:48.684Z,4.88
2019-01-17T18:33:21.004Z,4.97
2019-01-17T18:35:53.587Z,5.07
2019-01-17T18:38:24.494Z,5.11
2019-01-17T18:40:55.372Z,5.18
2019-01-17T18:43:26.245Z,5.21
2019-01-17T18:45:57.703Z,5.27
2019-01-17T18:48:28.596Z,5.38
2019-01-17T18:50:59.453Z,5.49
2019-01-17T18:53:52.880Z,5.56
2019-01-17T18:56:30.124Z,5.64
2019-01-17T18:59:07.380Z,5.72
2019-01-17T19:01:40.556Z,5.82
2019-01-17T19:04:11.828Z,5.84
2019-01-17T19:06:42.730Z,5.88
2019-01-17T19:09:14.930Z,5.92
2019-01-17T19:11:53.140Z,6.00
2019-01-17T19:14:35.239Z,6.13
2019-01-17T19:17:01.649Z,6.05
2019-01-17T19:19:32.815Z,6.17
2019-01-17T19:22:07.599Z,6.05
2019-01-17T19:24:41.766Z,5.80
2019-01-17T19:27:12.650Z,5.97
2019-01-17T19:29:43.504Z,5.69
2019-01-17T19:32:14.360Z,5.66
2019-01-17T19:34:46.610Z,5.67
2019-01-17T19:37:17.626Z,5.71
2019-01-17T19:39:48.658Z,5.63
2019-01-17T19:42:19.506Z,5.50
2019-01-17T19:44:52.766Z,5.46
2019-01-17T19:47:23.578Z,5.38
2019-01-17T19:49:56.139Z,5.43
2019-01-17T19:52:27.523Z,5.25
2019-01-17T19:55:00.480Z,5.24
2019-01-17T19:57:31.454Z,5.10
2019-01-17T20:02:02.905Z,5.05
2019-01-17T20:02:58.966Z,5.02
2019-01-17T20:05:32.450Z,4.96
2019-01-17T20:08:05.739Z,4.98
2019-01-17T20:10:38.324Z,4.91
2019-01-17T20:13:09.684Z,4.91
2019-01-17T20:15:40.659Z,4.82
2019-01-17T20:18:15.619Z,4.76
2019-01-17T20:20:46.630Z,4.64
2019-01-17T20:23:17.781Z,4.63
2019-01-17T20:25:48.867Z,4.47
2019-01-17T20:28:19.925Z,4.55
2019-01-17T20:30:50.842Z,4.61
2019-01-17T20:33:21.667Z,4.59
2019-01-17T20:35:52.549Z,4.55
2019-01-17T20:38:23.590Z,4.57
2019-01-17T20:40:58.304Z,4.53
2019-01-17T20:43:29.526Z,4.53
2019-01-17T20:46:00.513Z,4.52
2019-01-17T20:48:34.658Z,4.44
2019-01-17T20:51:05.743Z,4.35
2019-01-17T20:53:36.838Z,4.37
2019-01-17T20:56:07.951Z,4.37
2019-01-17T20:58:42.436Z,4.30
2019-01-17T21:01:45.240Z,4.32
2019-01-17T21:04:16.245Z,4.29
2019-01-17T21:06:49.414Z,4.28
2019-01-17T21:09:19.925Z,4.27
2019-01-17T21:11:50.924Z,4.22
2019-01-17T21:14:21.805Z,4.22
2019-01-17T21:16:52.581Z,4.18
2019-01-17T21:19:23.518Z,4.05
2019-01-17T21:21:54.285Z,4.07
2019-01-17T21:24:25.094Z,3.83
2019-01-17T21:26:55.958Z,3.85
2019-01-17T21:29:26.793Z,4.01
2019-01-17T21:31:57.617Z,4.00
2019-01-17T21:34:28.426Z,4.07
2019-01-17T21:36:59.501Z,4.07
2019-01-17T21:39:30.294Z,4.05
2019-01-17T21:42:01.083Z,4.17
2019-01-17T21:44:31.913Z,4.21
2019-01-17T21:47:02.781Z,4.17
2019-01-17T21:49:33.588Z,4.28
2019-01-17T21:52:04.413Z,4.28
2019-01-17T21:54:35.261Z,4.27
2019-01-17T21:57:06.061Z,4.13
2019-01-17T21:59:36.967Z,4.26
2019-01-17T22:02:07.800Z,4.25
2019-01-17T22:04:38.672Z,4.16
2019-01-17T22:07:09.436Z,4.36
2019-01-17T22:09:40.223Z,4.31
2019-01-17T22:12:11.005Z,4.44
2019-01-17T22:14:41.845Z,4.39
2019-01-17T22:17:12.688Z,4.31
2019-01-17T22:19:43.561Z,4.28
2019-01-17T22:22:14.384Z,4.11
2019-01-17T22:24:45.182Z,4.00
2019-01-17T22:27:15.979Z,4.01
2019-01-17T22:29:46.827Z,4.13
2019-01-17T22:32:17.640Z,4.14
2019-01-17T22:34:48.457Z,3.94
2019-01-17T22:37:19.352Z,3.87
2019-01-17T22:39:50.249Z,3.86
2019-01-17T22:42:21.076Z,4.00
2019-01-17T22:44:53.158Z,3.79
2019-01-17T22:47:24.160Z,3.74
2019-01-17T22:49:55.033Z,3.53
2019-01-17T22:52:25.870Z,3.57
2019-01-17T22:54:56.785Z,3.77
2019-01-17T22:57:27.533Z,3.73
2019-01-17T22:59:58.392Z,3.73
2019-01-17T23:02:29.184Z,3.95
2019-01-17T23:04:59.986Z,3.75
2019-01-17T23:07:30.804Z,3.96
2019-01-17T23:10:01.820Z,3.82
2019-01-17T23:12:32.604Z,3.82
2019-01-17T23:15:03.378Z,3.73
2019-01-17T23:17:34.184Z,3.85
2019-01-17T23:20:11.910Z,3.66
2019-01-17T23:22:44.802Z,3.77
2019-01-17T23:25:15.876Z,3.66
2019-01-17T23:27:49.692Z,3.40
2019-01-17T23:30:22.240Z,3.56
2019-01-17T23:32:53.284Z,3.37
2019-01-17T23:35:24.224Z,3.31
2019-01-17T23:37:55.474Z,3.30
2019-01-17T23:40:26.646Z,3.32
2019-01-17T23:42:57.793Z,3.36
2019-01-17T23:45:29.040Z,3.41
2019-01-17T23:48:00.032Z,3.35
2019-01-17T23:50:31.068Z,3.25
2019-01-17T23:53:04.641Z,3.03
2019-01-17T23:55:36.874Z,3.02
2019-01-17T23:58:09.160Z,2.78
